Time;durP1;ratioP1;P1;durP2;ratioP2;P2;SDS_P1;SDS_P2;PMS_P1;PMS_P2;Temp;Humidity;BMP_temperature;BMP_pressure;BME280_temperature;BME280_humidity;BME280_pressure;Samples;Min_cycle;Max_cycle;Signal;HPM_P1;HPM_P2
2021/10/31 00:00:36;;;;;;;39.53;19.08;;;6.70;99.90;;;;;;5044255;28;19909;-77
2021/10/31 00:03:02;;;;;;;40.45;21.40;;;6.80;99.90;;;;;;5056835;28;20122;-77
2021/10/31 00:05:27;;;;;;;;;;;6.70;99.90;;;;;;5035966;28;20136;-77
2021/10/31 00:07:53;;;;;;;56.22;23.60;;;6.60;99.90;;;;;;5035820;28;20271;-77
2021/10/31 00:10:20;;;;;;;49.20;23.42;;;6.70;99.90;;;;;;5034903;28;20632;-76
2021/10/31 00:12:46;;;;;;;36.50;17.83;;;6.60;99.90;;;;;;5035185;28;20119;-77
2021/10/31 00:15:12;;;;;;;35.10;16.75;;;6.60;99.90;;;;;;5053685;28;20036;-76
2021/10/31 00:17:38;;;;;;;31.42;16.75;;;6.70;99.90;;;;;;5053433;28;20048;-77
2021/10/31 00:20:06;;;;;;;33.30;17.00;;;6.60;99.90;;;;;;5035317;28;20055;-77
2021/10/31 00:22:32;;;;;;;28.38;15.88;;;6.60;99.90;;;;;;5055961;28;20032;-78
2021/10/31 00:25:01;;;;;;;26.95;14.43;;;6.60;99.90;;;;;;5039035;28;20052;-77
2021/10/31 00:27:27;;;;;;;22.10;12.73;;;6.60;99.90;;;;;;5034930;28;20033;-77
2021/10/31 00:29:53;;;;;;;;;;;6.50;99.90;;;;;;5033675;28;20694;-77
2021/10/31 00:32:19;;;;;;;27.00;14.23;;;6.60;99.90;;;;;;5034380;28;20045;-77
2021/10/31 00:34:44;;;;;;;21.63;13.68;;;6.60;99.90;;;;;;5034348;28;20917;-77
2021/10/31 00:37:10;;;;;;;;;;;6.60;99.90;;;;;;5052634;28;20048;-77
2021/10/31 00:39:36;;;;;;;40.05;18.70;;;6.60;99.90;;;;;;5034363;28;19995;-77
2021/10/31 00:42:01;;;;;;;31.98;16.50;;;6.50;99.90;;;;;;5034101;28;20094;-77
2021/10/31 00:44:27;;;;;;;26.98;14.55;;;6.50;99.90;;;;;;5052856;28;20543;-77
2021/10/31 00:46:53;;;;;;;;;;;6.50;99.90;;;;;;5035614;28;20029;-77
2021/10/31 00:49:19;;;;;;;22.52;12.55;;;6.50;99.90;;;;;;5035036;28;19931;-76
2021/10/31 00:51:45;;;;;;;;;;;6.60;99.90;;;;;;5053302;28;20493;-77
2021/10/31 00:54:11;;;;;;;27.52;13.73;;;6.60;99.90;;;;;;5035104;28;20094;-76
2021/10/31 00:56:37;;;;;;;32.08;16.60;;;6.70;99.90;;;;;;5034316;28;20123;-76
2021/10/31 00:59:04;;;;;;;31.83;16.20;;;6.60;99.90;;;;;;5052290;28;20545;-77
2021/10/31 01:01:31;;;;;;;37.92;16.27;;;6.60;99.90;;;;;;5034933;28;20029;-77
2021/10/31 01:03:56;;;;;;;32.53;16.85;;;6.50;99.90;;;;;;5053381;28;20070;-78
2021/10/31 01:06:41;;;;;;;;;;;6.60;99.90;;;;;;5054190;28;20049;-77
2021/10/31 01:09:45;;;;;;;36.45;16.08;;;6.30;99.90;;;;;;5035414;28;19909;-77
2021/10/31 01:12:38;;;;;;;29.83;16.10;;;6.30;99.90;;;;;;4997171;28;20037;-76
2021/10/31 01:15:24;;;;;;;36.05;15.82;;;6.20;99.90;;;;;;5037509;28;20036;-77
2021/10/31 01:18:24;;;;;;;26.25;14.98;;;6.10;99.90;;;;;;5057131;28;20517;-78
2021/10/31 01:21:10;;;;;;;29.65;16.23;;;6.10;99.90;;;;;;4969970;28;20068;-79
2021/10/31 01:23:44;;;;;;;35.75;17.02;;;6.10;99.90;;;;;;5035870;28;20025;-77
2021/10/31 01:26:21;;;;;;;29.35;16.40;;;6.10;99.90;;;;;;5037192;28;20029;-77
2021/10/31 01:29:17;;;;;;;29.80;17.20;;;6.00;99.90;;;;;;5035182;28;20025;-77
2021/10/31 01:32:04;;;;;;;40.17;19.88;;;6.00;99.90;;;;;;5034830;28;20032;-76
2021/10/31 01:34:35;;;;;;;37.22;20.55;;;6.00;99.90;;;;;;5052908;28;20031;-77
2021/10/31 01:37:13;;;;;;;31.20;17.92;;;6.00;99.90;;;;;;5052603;28;20041;-77
2021/10/31 01:39:54;;;;;;;34.95;18.17;;;5.90;99.90;;;;;;5053494;28;20029;-76
2021/10/31 01:42:40;;;;;;;42.15;20.48;;;5.90;99.90;;;;;;5035554;28;20116;-76
2021/10/31 01:45:19;;;;;;;35.22;19.88;;;5.80;99.90;;;;;;5034660;28;20531;-77
2021/10/31 01:47:51;;;;;;;41.20;19.05;;;5.70;99.90;;;;;;5052855;28;20044;-77
2021/10/31 01:50:40;;;;;;;50.00;23.23;;;5.60;99.90;;;;;;5055872;28;20029;-76
2021/10/31 01:53:14;;;;;;;43.45;23.65;;;5.60;99.90;;;;;;5038988;28;20025;-77
2021/10/31 01:55:52;;;;;;;46.88;24.50;;;5.60;99.90;;;;;;5039558;28;20035;-78
2021/10/31 01:58:22;;;;;;;41.38;22.80;;;5.60;99.90;;;;;;5062844;28;20056;-77
2021/10/31 02:00:54;;;;;;;33.15;20.67;;;5.70;99.90;;;;;;5037917;28;20108;-77
2021/10/31 02:03:21;;;;;;;40.28;21.35;;;5.60;99.90;;;;;;5055141;28;20033;-77
2021/10/31 02:05:49;;;;;;;34.03;19.10;;;5.60;99.90;;;;;;5055505;28;20131;-77
2021/10/31 02:08:17;;;;;;;33.58;18.85;;;5.60;99.90;;;;;;5037510;28;20029;-77
2021/10/31 02:10:46;;;;;;;38.92;23.88;;;5.60;99.90;;;;;;5037567;28;20033;-76
2021/10/31 02:13:14;;;;;;;47.10;25.70;;;5.60;99.90;;;;;;5037118;28;20025;-76
2021/10/31 02:15:43;;;;;;;50.08;24.75;;;5.60;99.90;;;;;;5055429;28;20397;-76
2021/10/31 02:18:11;;;;;;;36.53;21.55;;;5.50;99.90;;;;;;5054990;28;20102;-77
2021/10/31 02:20:40;;;;;;;34.17;17.73;;;5.40;99.90;;;;;;5037477;28;20051;-77
2021/10/31 02:23:06;;;;;;;29.38;15.80;;;5.40;99.90;;;;;;5037620;28;20036;-76
2021/10/31 02:25:33;;;;;;;;;;;5.60;99.90;;;;;;5037948;28;20048;-77
2021/10/31 02:27:59;;;;;;;28.45;14.88;;;5.40;99.90;;;;;;5055488;28;19905;-77
2021/10/31 02:30:25;;;;;;;21.92;14.52;;;5.40;99.90;;;;;;5037466;28;20401;-77
2021/10/31 02:32:51;;;;;;;25.80;16.52;;;5.50;99.90;;;;;;5060839;28;20089;-77
2021/10/31 02:35:18;;;;;;;27.17;16.20;;;5.40;99.90;;;;;;5062857;28;20032;-78
2021/10/31 02:37:44;;;;;;;27.95;15.60;;;5.40;99.90;;;;;;5037751;28;20471;-77
2021/10/31 02:40:11;;;;;;;;;;;5.40;99.90;;;;;;5037083;28;20028;-77
2021/10/31 02:42:37;;;;;;;22.95;14.73;;;5.40;99.90;;;;;;5054025;28;19905;-77
2021/10/31 02:45:08;;;;;;;24.27;16.13;;;5.30;99.90;;;;;;5054776;28;20052;-77
2021/10/31 02:47:53;;;;;;;25.73;15.30;;;5.30;99.90;;;;;;5053859;28;20066;-77
2021/10/31 02:50:23;;;;;;;29.05;17.15;;;5.30;99.90;;;;;;5035187;28;20462;-77
2021/10/31 02:53:16;;;;;;;23.88;15.70;;;5.20;99.90;;;;;;5038625;28;20029;-77
2021/10/31 02:56:06;;;;;;;25.02;15.55;;;5.10;99.90;;;;;;5054134;28;20021;-77
2021/10/31 02:58:44;;;;;;;27.00;15.95;;;5.10;99.90;;;;;;5035753;28;20767;-77
2021/10/31 03:01:11;;;;;;;26.63;16.92;;;5.00;99.90;;;;;;5052378;28;20033;-77
2021/10/31 03:03:37;;;;;;;28.95;17.92;;;5.00;99.90;;;;;;5035837;28;20493;-76
2021/10/31 03:06:04;;;;;;;;;;;5.00;99.90;;;;;;5035662;28;20129;-77
2021/10/31 03:08:31;;;;;;;37.25;19.70;;;4.90;99.90;;;;;;5036230;28;19915;-76
2021/10/31 03:11:02;;;;;;;32.47;19.75;;;4.90;99.90;;;;;;5053422;28;20025;-77
2021/10/31 03:13:28;;;;;;;41.13;22.67;;;4.90;99.90;;;;;;5055070;28;20057;-78
2021/10/31 03:15:54;;;;;;;;;;;4.80;99.90;;;;;;5036788;28;20025;-76
2021/10/31 03:18:20;;;;;;;41.35;21.85;;;4.80;99.90;;;;;;5036468;28;19967;-77
2021/10/31 03:20:48;;;;;;;;;;;4.80;99.90;;;;;;5055148;28;20460;-77
2021/10/31 03:23:14;;;;;;;34.35;18.17;;;4.90;99.90;;;;;;5055040;28;19912;-76
2021/10/31 03:25:39;;;;;;;;;;;4.80;99.90;;;;;;5055366;28;20028;-77
2021/10/31 03:28:05;;;;;;;33.25;17.88;;;4.80;99.90;;;;;;5038155;28;19909;-76
2021/10/31 03:30:31;;;;;;;;;;;4.90;99.90;;;;;;5039713;28;20104;-77
2021/10/31 03:32:57;;;;;;;34.75;18.63;;;5.00;99.90;;;;;;5059907;28;20319;-76
2021/10/31 03:35:23;;;;;;;30.08;17.63;;;5.00;99.90;;;;;;5053958;28;20047;-76
2021/10/31 03:37:50;;;;;;;30.83;19.20;;;4.90;99.90;;;;;;5035301;28;20041;-76
2021/10/31 03:40:16;;;;;;;27.83;18.85;;;5.00;99.90;;;;;;5053242;28;20031;-77
2021/10/31 03:42:41;;;;;;;;;;;5.00;99.90;;;;;;5035668;28;20032;-77
2021/10/31 03:45:09;;;;;;;36.60;20.60;;;5.00;99.90;;;;;;5053641;28;19909;-76
2021/10/31 03:47:43;;;;;;;30.52;18.33;;;5.00;99.90;;;;;;5054209;28;20025;-77
2021/10/31 03:50:09;;;;;;;29.90;18.73;;;5.00;99.90;;;;;;5055767;28;20029;-75
2021/10/31 03:52:34;;;;;;;;;;;5.00;99.90;;;;;;5035609;28;20036;-76
2021/10/31 03:55:00;;;;;;;27.48;16.90;;;5.00;99.90;;;;;;5034362;28;19928;-77
2021/10/31 03:57:26;;;;;;;30.45;19.00;;;4.90;99.90;;;;;;5034415;28;20041;-78
2021/10/31 03:59:52;;;;;;;31.48;19.50;;;4.90;99.90;;;;;;5034396;28;20032;-77
2021/10/31 04:02:17;;;;;;;;;;;4.80;99.90;;;;;;5052754;28;20028;-77
2021/10/31 04:04:43;;;;;;;31.48;18.95;;;4.80;99.90;;;;;;5033722;28;19947;-76
2021/10/31 04:07:09;;;;;;;25.90;16.67;;;4.80;99.90;;;;;;5052479;28;20438;-77
2021/10/31 04:09:36;;;;;;;39.38;22.23;;;4.70;99.90;;;;;;5034434;28;20611;-77
2021/10/31 04:12:02;;;;;;;40.15;21.30;;;4.70;99.90;;;;;;5033806;28;20520;-77
2021/10/31 04:14:27;;;;;;;;;;;4.80;99.90;;;;;;5052751;28;20380;-76
2021/10/31 04:16:53;;;;;;;33.88;18.35;;;4.80;99.90;;;;;;5052328;28;20388;-76
2021/10/31 04:19:19;;;;;;;;;;;4.80;99.90;;;;;;5036775;28;20098;-77
2021/10/31 04:21:44;;;;;;;34.45;19.17;;;4.80;99.90;;;;;;5034345;28;20336;-77
2021/10/31 04:24:10;;;;;;;36.33;21.38;;;4.80;99.90;;;;;;5052514;28;20021;-76
2021/10/31 04:26:35;;;;;;;33.22;20.08;;;4.80;99.90;;;;;;5052679;28;20505;-77
2021/10/31 04:29:01;;;;;;;;;;;4.80;99.90;;;;;;5053168;28;20095;-77
2021/10/31 04:31:28;;;;;;;33.85;19.85;;;4.70;99.90;;;;;;5051863;28;19905;-76
2021/10/31 04:33:53;;;;;;;34.28;21.48;;;4.70;99.90;;;;;;5033737;28;20041;-76
2021/10/31 04:36:19;;;;;;;;;;;4.60;99.90;;;;;;5035730;28;20032;-76
2021/10/31 04:38:49;;;;;;;33.63;20.35;;;4.60;99.90;;;;;;5052649;28;19912;-77
2021/10/31 04:41:15;;;;;;;37.83;23.80;;;4.60;99.90;;;;;;5034806;28;20052;-77
2021/10/31 04:43:40;;;;;;;;;;;4.60;99.90;;;;;;5053231;28;20401;-77
2021/10/31 04:46:06;;;;;;;36.28;21.48;;;4.60;99.90;;;;;;5053458;28;19916;-77
2021/10/31 04:48:32;;;;;;;;;;;4.60;99.90;;;;;;5035260;28;20033;-76
2021/10/31 04:50:59;;;;;;;44.05;25.52;;;4.60;99.90;;;;;;5053184;28;19987;-77
2021/10/31 04:53:25;;;;;;;50.08;26.58;;;4.70;99.90;;;;;;5052898;28;20100;-76
2021/10/31 04:55:50;;;;;;;;;;;4.60;99.90;;;;;;5055092;28;20073;-76
2021/10/31 04:58:16;;;;;;;40.30;25.75;;;4.60;99.90;;;;;;5034569;28;19917;-77
2021/10/31 05:00:42;;;;;;;;;;;4.60;99.90;;;;;;5053135;28;20021;-77
2021/10/31 05:03:08;;;;;;;37.03;22.10;;;4.60;99.90;;;;;;5034708;28;19988;-76
2021/10/31 05:05:35;;;;;;;41.63;24.85;;;4.50;99.90;;;;;;5035496;28;20508;-78
2021/10/31 05:08:02;;;;;;;39.63;23.38;;;4.50;99.90;;;;;;5060269;28;20043;-77
2021/10/31 05:10:28;;;;;;;32.03;20.30;;;4.50;99.90;;;;;;5042484;28;20043;-77
2021/10/31 05:12:54;;;;;;;35.92;22.48;;;4.40;99.90;;;;;;5052635;28;20110;-77
2021/10/31 05:15:19;;;;;;;;;;;4.50;99.90;;;;;;5033872;28;20632;-77
2021/10/31 05:17:46;;;;;;;37.50;23.15;;;4.50;99.90;;;;;;5032896;28;19916;-77
2021/10/31 05:20:13;;;;;;;43.15;25.75;;;4.50;99.90;;;;;;5016755;28;20029;-77
2021/10/31 05:22:39;;;;;;;41.40;25.30;;;4.70;99.90;;;;;;5033004;28;20040;-77
2021/10/31 05:25:07;;;;;;;37.40;23.98;;;4.60;99.90;;;;;;5037389;28;20024;-77
2021/10/31 05:27:34;;;;;;;43.65;26.20;;;4.50;99.90;;;;;;5057997;28;20865;-78
2021/10/31 05:29:59;;;;;;;47.17;25.98;;;4.50;99.90;;;;;;5059175;28;20025;-77
2021/10/31 05:32:32;;;;;;;;;;;4.40;99.90;;;;;;5039933;28;20070;-77
2021/10/31 05:34:57;;;;;;;36.90;21.45;;;4.50;99.90;;;;;;5058258;28;20007;-77
2021/10/31 05:37:23;;;;;;;;;;;4.40;99.90;;;;;;5040377;28;20178;-77
2021/10/31 05:39:49;;;;;;;58.22;37.40;;;4.40;99.90;;;;;;5040579;28;20297;-77
2021/10/31 05:42:15;;;;;;;63.28;44.08;;;4.50;99.90;;;;;;5059063;28;20036;-78
2021/10/31 05:44:40;;;;;;;;;;;4.50;99.90;;;;;;5059253;28;20021;-76
2021/10/31 05:47:06;;;;;;;58.97;39.85;;;4.50;99.90;;;;;;5061180;28;19909;-77
2021/10/31 05:49:32;;;;;;;;;;;4.60;99.90;;;;;;5041323;28;20032;-77
2021/10/31 05:51:59;;;;;;;45.22;28.52;;;4.70;99.90;;;;;;5057912;28;19916;-78
2021/10/31 05:54:25;;;;;;;44.97;27.75;;;4.70;99.90;;;;;;5039793;28;20040;-77
2021/10/31 05:56:50;;;;;;;;;;;4.80;99.90;;;;;;5041134;28;20041;-77
2021/10/31 05:59:16;;;;;;;45.75;25.33;;;4.90;99.90;;;;;;5058146;28;19915;-77
2021/10/31 06:01:41;;;;;;;46.35;29.27;;;4.90;99.90;;;;;;5059626;28;20103;-77
2021/10/31 06:04:07;;;;;;;;;;;5.10;99.90;;;;;;5060285;28;20025;-77
2021/10/31 06:06:34;;;;;;;39.22;23.42;;;5.10;99.90;;;;;;5041774;28;19921;-77
2021/10/31 06:09:00;;;;;;;40.58;24.95;;;5.10;99.90;;;;;;5060758;28;20048;-76
2021/10/31 06:11:27;;;;;;;42.45;25.35;;;5.20;99.90;;;;;;5060099;28;20035;-78
2021/10/31 06:13:55;;;;;;;41.78;25.33;;;5.30;99.90;;;;;;5042577;28;20091;-77
2021/10/31 06:16:21;;;;;;;40.42;23.27;;;5.40;99.90;;;;;;5041291;28;20037;-77
2021/10/31 06:18:47;;;;;;;;;;;5.60;99.90;;;;;;5041138;28;20071;-77
2021/10/31 06:21:14;;;;;;;30.88;21.52;;;6.00;99.90;;;;;;5063926;28;19972;-78
2021/10/31 06:23:39;;;;;;;30.92;19.48;;;6.70;99.90;;;;;;5048616;28;20039;-78
2021/10/31 06:26:05;;;;;;;;;;;7.40;99.90;;;;;;5062863;28;20099;-78
2021/10/31 06:28:31;;;;;;;21.45;14.90;;;8.20;99.90;;;;;;5062097;28;19904;-78
2021/10/31 06:30:57;;;;;;;27.23;17.15;;;8.90;99.90;;;;;;5042082;28;20029;-78
2021/10/31 06:33:23;;;;;;;;;;;9.70;99.90;;;;;;5061047;28;20036;-78
2021/10/31 06:35:48;;;;;;;25.65;16.80;;;10.20;99.90;;;;;;5041906;28;19931;-78
2021/10/31 06:38:15;;;;;;;;;;;10.60;99.90;;;;;;5040368;28;20044;-77
2021/10/31 06:40:41;;;;;;;36.95;22.73;;;10.90;99.90;;;;;;5023603;28;19928;-78
2021/10/31 06:43:07;;;;;;;;;;;10.70;99.90;;;;;;5051960;28;20092;-78
2021/10/31 06:45:32;;;;;;;58.00;44.70;;;10.70;99.90;;;;;;5040505;28;20387;-78
2021/10/31 06:48:00;;;;;;;;;;;10.70;99.90;;;;;;5040450;28;20071;-78
2021/10/31 06:50:26;;;;;;;52.58;32.72;;;10.70;99.90;;;;;;5039142;28;19909;-78
2021/10/31 06:52:51;;;;;;;;;;;10.60;99.90;;;;;;5040149;28;20025;-78
2021/10/31 06:55:18;;;;;;;63.10;35.50;;;10.50;99.90;;;;;;5039203;28;20659;-78
2021/10/31 06:57:44;;;;;;;51.47;29.08;;;10.50;99.90;;;;;;5040539;28;20041;-77
2021/10/31 07:00:10;;;;;;;;;;;10.50;99.90;;;;;;5039552;28;20113;-77
2021/10/31 07:02:36;;;;;;;37.67;22.00;;;10.50;99.90;;;;;;5037956;28;19916;-77
2021/10/31 07:05:01;;;;;;;;;;;10.50;99.90;;;;;;5058430;28;20048;-78
2021/10/31 07:07:28;;;;;;;23.77;16.58;;;10.60;99.90;;;;;;5057553;28;19916;-78
2021/10/31 07:09:54;;;;;;;24.98;15.90;;;10.60;99.90;;;;;;5058053;28;20524;-77
2021/10/31 07:12:19;;;;;;;;;;;10.70;99.90;;;;;;5041068;28;20025;-77
2021/10/31 07:14:46;;;;;;;24.00;12.50;;;10.70;99.90;;;;;;5057579;28;19912;-77
2021/10/31 07:17:11;;;;;;;;;;;11.00;99.90;;;;;;5039778;28;20103;-78
2021/10/31 07:19:37;;;;;;;17.98;11.15;;;11.30;99.90;;;;;;5058113;28;19904;-79
2021/10/31 07:22:03;;;;;;;;;;;11.60;99.90;;;;;;5039879;28;20025;-80
2021/10/31 07:24:28;;;;;;;15.13;10.40;;;11.90;99.90;;;;;;5040236;28;19967;-79
2021/10/31 07:26:57;;;;;;;;;;;12.00;99.30;;;;;;5040336;28;20572;-78
2021/10/31 07:29:22;;;;;;;20.42;11.25;;;12.20;99.00;;;;;;5057686;28;19909;-77
2021/10/31 07:31:52;;;;;;;;;;;12.50;98.20;;;;;;5042006;28;20025;-77
2021/10/31 07:34:18;;;;;;;13.80;9.32;;;12.60;96.50;;;;;;5039983;28;19912;-77
2021/10/31 07:36:44;;;;;;;;;;;12.50;97.00;;;;;;5041272;28;20036;-78
2021/10/31 07:39:10;;;;;;;14.30;9.52;;;12.60;96.40;;;;;;5058327;28;19979;-77
2021/10/31 07:41:42;;;;;;;18.25;10.07;;;12.50;96.70;;;;;;5060123;28;20037;-78
2021/10/31 07:44:08;;;;;;;;;;;12.60;96.20;;;;;;5070637;28;20374;-78
2021/10/31 07:46:38;;;;;;;18.63;10.32;;;12.60;96.10;;;;;;5069316;28;19943;-78
2021/10/31 07:49:04;;;;;;;14.75;9.23;;;12.60;96.30;;;;;;5057878;28;20033;-78
2021/10/31 07:51:31;;;;;;;16.50;9.77;;;12.70;95.50;;;;;;5057986;28;20025;-78
2021/10/31 07:53:57;;;;;;;16.20;8.82;;;12.80;95.60;;;;;;5039932;28;20033;-78
2021/10/31 07:56:26;;;;;;;;;;;12.80;94.90;;;;;;5041023;28;20029;-78
2021/10/31 07:58:55;;;;;;;20.02;10.13;;;12.90;95.00;;;;;;5039833;28;20321;-79
2021/10/31 08:01:23;;;;;;;13.38;8.82;;;13.00;94.80;;;;;;5056667;28;20025;-78
2021/10/31 08:03:53;;;;;;;12.93;8.75;;;13.10;93.90;;;;;;5056201;28;20025;-78
2021/10/31 08:06:23;;;;;;;17.85;9.15;;;13.30;93.40;;;;;;5056520;28;20069;-77
2021/10/31 08:08:49;;;;;;;15.82;9.85;;;13.40;93.10;;;;;;5038870;28;20116;-78
2021/10/31 08:11:15;;;;;;;13.02;8.30;;;13.40;93.20;;;;;;5038484;28;20035;-78
2021/10/31 08:13:41;;;;;;;;;;;13.60;92.50;;;;;;5038028;28;20586;-79
2021/10/31 08:16:08;;;;;;;13.60;8.75;;;13.80;91.40;;;;;;5022472;28;19913;-82
2021/10/31 08:18:33;;;;;;;15.40;9.68;;;14.00;91.60;;;;;;5042035;28;20029;-75
2021/10/31 08:20:59;;;;;;;;;;;14.30;90.70;;;;;;5038702;28;20036;-78
2021/10/31 08:23:26;;;;;;;14.30;8.25;;;14.50;89.90;;;;;;5033252;28;19915;-77
2021/10/31 08:25:51;;;;;;;12.00;7.70;;;14.70;88.80;;;;;;5049310;28;20520;-79
2021/10/31 08:28:18;;;;;;;;;;;14.90;88.00;;;;;;5031719;28;20029;-82
2021/10/31 08:30:48;;;;;;;14.00;9.02;;;15.20;84.60;;;;;;5049094;28;20414;-81
2021/10/31 08:33:43;;;;;;;14.82;8.40;;;15.60;82.30;;;;;;5031166;28;20040;-80
2021/10/31 08:36:05;;;;;;;11.50;7.25;;;15.90;81.10;;;;;;5048117;28;20037;-81
2021/10/31 08:38:31;;;;;;;11.80;8.52;;;16.70;79.40;;;;;;5031140;28;20045;-82
2021/10/31 08:40:57;;;;;;;11.88;7.22;;;17.40;74.10;;;;;;5048865;28;20032;-81
2021/10/31 08:43:23;;;;;;;13.07;9.05;;;17.80;71.30;;;;;;5048914;28;20028;-80
2021/10/31 08:45:51;;;;;;;13.68;8.55;;;18.30;68.70;;;;;;5030933;28;20024;-80
2021/10/31 08:48:17;;;;;;;18.02;8.93;;;18.70;67.30;;;;;;5030980;28;20024;-80
2021/10/31 08:50:43;;;;;;;13.98;8.60;;;19.00;65.30;;;;;;5048698;28;20096;-80
2021/10/31 08:53:10;;;;;;;14.77;9.20;;;19.60;63.10;;;;;;5030860;28;20029;-81
2021/10/31 08:55:39;;;;;;;11.90;7.65;;;19.90;59.40;;;;;;5030682;28;20029;-79
2021/10/31 08:58:09;;;;;;;13.98;9.48;;;20.10;58.40;;;;;;5048185;28;20127;-79
2021/10/31 09:00:37;;;;;;;11.82;7.28;;;20.30;58.00;;;;;;5029936;28;20056;-79
2021/10/31 09:03:05;;;;;;;11.13;8.00;;;20.50;56.50;;;;;;5048355;28;20508;-79
2021/10/31 09:05:32;;;;;;;10.75;7.82;;;20.60;53.80;;;;;;5048232;28;20045;-78
2021/10/31 09:07:57;;;;;;;14.00;8.50;;;20.60;54.20;;;;;;5030512;28;20053;-80
2021/10/31 09:10:23;;;;;;;13.48;8.35;;;20.70;53.00;;;;;;5048873;28;20543;-79
2021/10/31 09:12:49;;;;;;;11.07;7.95;;;20.70;52.80;;;;;;5030198;28;20155;-80
2021/10/31 09:15:15;;;;;;;11.10;8.40;;;20.80;52.60;;;;;;5030638;28;20036;-79
2021/10/31 09:17:41;;;;;;;11.85;8.75;;;20.80;52.70;;;;;;5048113;28;20048;-80
2021/10/31 09:20:07;;;;;;;10.63;8.35;;;21.00;51.10;;;;;;5048195;28;20029;-79
2021/10/31 09:22:33;;;;;;;13.52;8.20;;;21.00;50.70;;;;;;5030136;28;20480;-79
2021/10/31 09:24:59;;;;;;;12.77;8.77;;;20.60;51.20;;;;;;5048249;28;20029;-79
2021/10/31 09:27:24;;;;;;;16.15;8.00;;;20.00;52.40;;;;;;5030220;28;20775;-79
2021/10/31 09:29:50;;;;;;;11.65;8.15;;;19.30;54.10;;;;;;5048280;28;20031;-80
2021/10/31 09:32:16;;;;;;;13.98;8.57;;;18.80;55.20;;;;;;5030286;28;20029;-82
2021/10/31 09:34:43;;;;;;;13.75;8.10;;;18.50;54.90;;;;;;5030151;28;20036;-82
2021/10/31 09:37:09;;;;;;;16.35;9.38;;;18.00;55.70;;;;;;5048430;28;20405;-77
2021/10/31 09:39:36;;;;;;;23.13;9.05;;;17.50;57.40;;;;;;5030247;28;20716;-81
2021/10/31 09:42:01;;;;;;;13.48;8.43;;;17.20;58.40;;;;;;5048012;28;20021;-78
2021/10/31 09:44:32;;;;;;;15.05;9.52;;;16.90;59.40;;;;;;5048411;28;20036;-80
2021/10/31 09:46:58;;;;;;;14.10;8.10;;;16.60;60.20;;;;;;5030129;28;20120;-79
2021/10/31 09:49:24;;;;;;;15.18;9.45;;;16.50;60.90;;;;;;5048347;28;20166;-78
2021/10/31 09:51:53;;;;;;;13.93;9.60;;;16.30;61.50;;;;;;5053094;28;20504;-80
2021/10/31 09:54:19;;;;;;;15.52;9.82;;;16.30;61.90;;;;;;5035865;28;20021;-78
2021/10/31 09:56:46;;;;;;;16.08;8.85;;;16.10;62.30;;;;;;5037737;28;20124;-78
2021/10/31 09:59:14;;;;;;;13.88;9.07;;;16.00;62.10;;;;;;5053907;28;20021;-78
2021/10/31 10:02:12;;;;;;;15.40;10.90;;;15.80;62.70;;;;;;5019710;28;20033;-77
2021/10/31 10:04:49;;;;;;;13.45;8.30;;;15.70;63.60;;;;;;5054302;28;20025;-78
2021/10/31 10:07:16;;;;;;;15.50;10.32;;;15.60;64.00;;;;;;5035799;28;20091;-77
2021/10/31 10:09:51;;;;;;;14.07;10.18;;;15.50;64.70;;;;;;5036821;28;20029;-78
2021/10/31 10:12:19;;;;;;;15.23;10.10;;;15.50;64.40;;;;;;5057733;28;20104;-78
2021/10/31 10:15:07;;;;;;;18.58;11.52;;;15.40;64.80;;;;;;5039456;28;20028;-77
2021/10/31 10:17:43;;;;;;;23.48;11.88;;;15.40;65.00;;;;;;5041714;28;20075;-78
2021/10/31 10:20:12;;;;;;;14.85;9.55;;;15.40;64.10;;;;;;5067123;28;20025;-79
2021/10/31 10:22:38;;;;;;;16.10;9.70;;;15.30;64.50;;;;;;5063207;28;20025;-78
2021/10/31 10:25:05;;;;;;;17.65;10.18;;;15.20;65.20;;;;;;5057414;28;20032;-76
2021/10/31 10:27:35;;;;;;;21.77;12.20;;;15.10;65.80;;;;;;5056956;28;20029;-76
2021/10/31 10:30:13;;;;;;;17.02;11.32;;;15.10;66.40;;;;;;5038577;28;20033;-77
2021/10/31 10:32:51;;;;;;;20.58;11.82;;;15.10;65.90;;;;;;5058248;28;20025;-77
2021/10/31 10:35:26;;;;;;;16.73;11.25;;;15.10;66.10;;;;;;5039640;28;20542;-78
2021/10/31 10:37:53;;;;;;;18.40;10.10;;;15.10;66.40;;;;;;5057662;28;20045;-77
2021/10/31 10:40:23;;;;;;;15.82;9.73;;;15.10;66.60;;;;;;5039193;28;20025;-76
2021/10/31 10:42:52;;;;;;;14.45;9.30;;;15.10;66.60;;;;;;5040001;28;20041;-77
2021/10/31 10:45:27;;;;;;;16.02;9.45;;;15.00;67.40;;;;;;5039727;28;20029;-77
2021/10/31 10:47:59;;;;;;;13.38;8.95;;;15.10;66.80;;;;;;5038537;28;20029;-77
2021/10/31 10:50:29;;;;;;;14.77;8.95;;;15.10;66.70;;;;;;5056940;28;20048;-75
2021/10/31 10:52:56;;;;;;;14.57;10.15;;;15.10;66.40;;;;;;5038183;28;20028;-76
2021/10/31 10:55:33;;;;;;;16.38;9.48;;;15.10;67.20;;;;;;5056785;28;20033;-76
2021/10/31 10:58:08;;;;;;;13.40;8.00;;;15.10;66.70;;;;;;5039628;28;20497;-77
2021/10/31 11:00:37;;;;;;;12.63;8.57;;;15.00;67.20;;;;;;5039733;28;20021;-76
2021/10/31 11:03:04;;;;;;;12.35;8.18;;;15.00;66.70;;;;;;5039338;28;20056;-77
2021/10/31 11:05:39;;;;;;;13.20;9.45;;;15.00;67.10;;;;;;5038954;28;20056;-76
2021/10/31 11:08:15;;;;;;;11.43;7.85;;;15.20;66.70;;;;;;5057367;28;20036;-76
2021/10/31 11:10:55;;;;;;;12.15;8.95;;;15.10;66.60;;;;;;5056884;28;20028;-76
2021/10/31 11:13:27;;;;;;;12.95;8.43;;;15.10;66.30;;;;;;5022572;28;20612;-76
2021/10/31 11:16:02;;;;;;;14.55;8.55;;;15.10;66.60;;;;;;5038727;28;20056;-76
2021/10/31 11:18:28;;;;;;;14.53;8.80;;;15.00;66.50;;;;;;5039147;28;20190;-76
2021/10/31 11:20:54;;;;;;;14.18;9.13;;;15.00;66.60;;;;;;5056693;28;20401;-77
2021/10/31 11:23:21;;;;;;;13.63;8.07;;;15.10;66.00;;;;;;5058793;28;20036;-77
2021/10/31 11:25:50;;;;;;;16.90;8.40;;;15.10;65.40;;;;;;5043814;28;20036;-77
2021/10/31 11:28:20;;;;;;;12.50;8.23;;;15.10;65.40;;;;;;5045237;28;20031;-78
2021/10/31 11:30:49;;;;;;;14.25;8.65;;;15.10;65.10;;;;;;5062654;28;20477;-78
2021/10/31 11:33:16;;;;;;;22.13;9.90;;;15.10;65.10;;;;;;5057297;28;20028;-76
2021/10/31 11:35:43;;;;;;;11.50;8.10;;;15.20;64.80;;;;;;5057031;28;20033;-76
2021/10/31 11:38:13;;;;;;;17.05;9.20;;;15.00;65.20;;;;;;5038131;28;20540;-77
2021/10/31 11:40:45;;;;;;;15.65;10.70;;;15.10;64.60;;;;;;5038431;28;20029;-76
2021/10/31 11:43:36;;;;;;;12.90;9.45;;;15.00;64.60;;;;;;5039432;28;20541;-76
2021/10/31 11:46:03;;;;;;;14.43;10.00;;;15.00;65.50;;;;;;5056378;28;20021;-78
2021/10/31 11:48:34;;;;;;;14.43;9.00;;;15.00;65.70;;;;;;5039128;28;20024;-77
2021/10/31 11:51:03;;;;;;;16.17;8.98;;;15.00;65.60;;;;;;5057458;28;20493;-75
2021/10/31 11:53:36;;;;;;;16.15;9.27;;;15.00;65.60;;;;;;5055989;28;20405;-77
2021/10/31 11:56:17;;;;;;;15.00;10.13;;;15.00;65.50;;;;;;5038350;28;20025;-76
2021/10/31 11:58:49;;;;;;;14.27;9.25;;;15.00;65.30;;;;;;5056450;28;20079;-76
2021/10/31 12:01:19;;;;;;;14.10;8.40;;;15.10;64.70;;;;;;5038403;28;20082;-77
2021/10/31 12:03:58;;;;;;;13.43;8.95;;;15.00;65.30;;;;;;5037123;28;20039;-77
2021/10/31 12:06:26;;;;;;;15.88;9.13;;;15.20;65.10;;;;;;5038433;28;20100;-77
2021/10/31 12:09:07;;;;;;;11.98;7.63;;;15.10;64.70;;;;;;5055434;28;20032;-77
2021/10/31 12:11:32;;;;;;;15.43;8.63;;;15.00;65.00;;;;;;5038063;28;20036;-76
2021/10/31 12:14:06;;;;;;;;;;;15.00;65.10;;;;;;5039410;28;20029;-77
2021/10/31 12:16:56;;;;;;;14.27;7.85;;;15.20;64.70;;;;;;5056378;28;19913;-76
2021/10/31 12:19:42;;;;;;;15.35;8.52;;;15.20;64.50;;;;;;5056221;28;20037;-77
2021/10/31 12:22:35;;;;;;;12.75;9.23;;;15.20;64.70;;;;;;5038749;28;20036;-76
2021/10/31 12:25:10;;;;;;;12.75;8.63;;;15.20;64.30;;;;;;5039609;28;20033;-75
2021/10/31 12:27:44;;;;;;;11.65;7.97;;;15.20;64.40;;;;;;5056713;28;20038;-78
2021/10/31 12:30:33;;;;;;;12.68;7.95;;;15.20;64.70;;;;;;5039853;28;20028;-78
2021/10/31 12:33:05;;;;;;;15.00;8.77;;;15.20;65.00;;;;;;5057196;28;20032;-76
2021/10/31 12:35:40;;;;;;;11.93;8.93;;;15.30;65.00;;;;;;5057282;28;20551;-77
2021/10/31 12:38:18;;;;;;;13.05;8.50;;;15.30;64.80;;;;;;5039378;28;20033;-77
2021/10/31 12:41:04;;;;;;;12.88;7.40;;;15.40;64.70;;;;;;5039031;28;20436;-77
2021/10/31 12:43:45;;;;;;;16.15;8.05;;;15.40;63.40;;;;;;5025937;28;20143;-77
2021/10/31 12:46:23;;;;;;;11.00;6.60;;;15.70;62.70;;;;;;5058403;28;20047;-77
2021/10/31 12:49:01;;;;;;;10.40;7.22;;;15.60;62.80;;;;;;5041359;28;20036;-78
2021/10/31 12:51:42;;;;;;;14.27;7.63;;;15.60;63.10;;;;;;5057836;28;20033;-78
2021/10/31 12:54:17;;;;;;;14.18;7.70;;;15.60;63.40;;;;;;5043097;28;20033;-77
2021/10/31 12:56:43;;;;;;;17.52;8.18;;;15.70;63.20;;;;;;5046783;28;20028;-80
2021/10/31 12:59:14;;;;;;;;;;;15.70;63.40;;;;;;5065125;28;20055;-81
2021/10/31 13:01:40;;;;;;;11.10;8.02;;;15.80;63.00;;;;;;5046385;28;19904;-78
2021/10/31 13:04:07;;;;;;;;;;;15.70;62.50;;;;;;5038867;28;20025;-78